Decoded Metar for LFLY (LYON BRON in FRANCE) (IATA:LYN) | Meteo·Mobile Aviation Weather
aviador You're here:

LFLY Decoded Metar

LYON BRON in FRANCE
Report Time2018-12-11 11:00:00
UTC Time2018-12-11 11:17:51
Flight Rules vfr VFR
Wind350° at 09 kt
W.Decomp.*RWY 34: 8.9 kt HW 1.6 kt RCW
W.Rank350° ranks 1
Current wind is above 350° avg. (8.2)
Visibility9999 m
Phenomena:N/A
Clouds:Scattered 021 Hf
Expected CloudBase > 2,400 ft AGL from Temp-Dew spread
CeilingNone
Temp08°C (ISA -6)
Dew Point02°C (66% RH)
AAT3.1°C
QNH1024 hPa
Density Alt-295 ft
Elevation659 ft
Report Wrong Elevation
Raw Report
LFLY 111100Z AUTO 35009KT 330V040 9999 SCT021 08/02 Q1024
NOSIG=

Extra information for LFLY:More info

Metar Taf Metar & Taf Last 4 Metars F.Rules Stats Wind Profile Meteogram Temp Stats Airport Information Weather charts Add Link Nearby VenuesMetar ALERT Operation Metar Decoded Social comments